Time;durP1;ratioP1;P1;durP2;ratioP2;P2;SDS_P1;SDS_P2;PMS_P1;PMS_P2;Temp;Humidity;BMP_temperature;BMP_pressure;BME280_temperature;BME280_humidity;BME280_pressure;Samples;Min_cycle;Max_cycle;Signal;HPM_P1;HPM_P2
2023/04/26 00:02:12;;;;;;;;;;;;;;;;;;5044892;28;19971;-58
2023/04/26 00:04:38;;;;;;;;;;;;;;;;;;5052713;28;19913;-58
2023/04/26 00:07:03;;;;;;;;;;;;;;;;;;5055996;28;19970;-60
2023/04/26 00:09:30;;;;;;;;;;;;;;;;;;5054651;28;19955;-58
2023/04/26 00:11:56;;;;;;;;;;;;;;;;;;5050905;28;19928;-58
2023/04/26 00:14:22;;;;;;;;;;;;;;;;;;5056573;28;19993;-58
2023/04/26 00:16:48;;;;;;;;;;;;;;;;;;5045951;28;20043;-57
2023/04/26 00:19:14;;;;;;;;;;;;;;;;;;5051332;28;19989;-58
2023/04/26 00:21:40;;;;;;;;;;;;;;;;;;5039394;28;19935;-58
2023/04/26 00:24:06;;;;;;;;;;;;;;;;;;5052291;28;20396;-58
2023/04/26 00:26:33;;;;;;;;;;;;;;;;;;5036340;28;19944;-58
2023/04/26 00:28:59;;;;;;;;;;;;;;;;;;5064486;28;19979;-60
2023/04/26 00:31:25;;;;;;;;;;;;;;;;;;5059933;28;19948;-58
2023/04/26 00:33:51;;;;;;;;;;;;;;;;;;5051764;28;19938;-58
2023/04/26 00:36:18;;;;;;;;;;;;;;;;;;5043060;28;20056;-58
2023/04/26 00:38:44;;;;;;;;;;;;;;;;;;5037503;28;19917;-58
2023/04/26 00:41:10;;;;;;;;;;;;;;;;;;5048543;28;19921;-58
2023/04/26 00:43:36;;;;;;;;;;;;;;;;;;5052557;28;19939;-58
2023/04/26 00:46:02;;;;;;;;;;;;;;;;;;5051656;28;19920;-59
2023/04/26 00:48:28;;;;;;;;;;;;;;;;;;5051307;28;19924;-57
2023/04/26 00:50:54;;;;;;;;;;;;;;;;;;5045174;28;19945;-59
2023/04/26 00:53:20;;;;;;;;;;;;;;;;;;5032651;28;20374;-58
2023/04/26 00:55:46;;;;;;;;;;;;;;;;;;5032257;28;19913;-58
2023/04/26 00:58:12;;;;;;;;;;;;;;;;;;5042271;28;20400;-58
2023/04/26 01:00:38;;;;;;;;;;;;;;;;;;5039360;28;19917;-61
2023/04/26 01:03:04;;;;;;;;;;;;;;;;;;5031838;28;19979;-62
2023/04/26 01:05:30;;;;;;;;;;;;;;;;;;5037462;28;19913;-62
2023/04/26 01:07:56;;;;;;;;;;;;;;;;;;5051195;28;20373;-62
2023/04/26 01:10:22;;;;;;;;;;;;;;;;;;5053670;28;19909;-63
2023/04/26 01:12:48;;;;;;;;;;;;;;;;;;5051992;28;20058;-61
2023/04/26 01:15:14;;;;;;;;;;;;;;;;;;5048008;28;19921;-63
2023/04/26 01:17:40;;;;;;;;;;;;;;;;;;5046271;28;19913;-61
2023/04/26 01:20:08;;;;;;;;;;;;;;;;;;5050799;28;19913;-61
2023/04/26 01:22:35;;;;;;;;;;;;;;;;;;5050094;28;19960;-61
2023/04/26 01:25:01;;;;;;;;;;;;;;;;;;5055497;28;19916;-61
2023/04/26 01:27:27;;;;;;;;;;;;;;;;;;5054015;28;20330;-63
2023/04/26 01:29:52;;;;;;;;;;;;;;;;;;5055351;28;20003;-61
2023/04/26 01:32:18;;;;;;;;;;;;;;;;;;5038245;28;19923;-61
2023/04/26 01:34:45;;;;;;;;;;;;;;;;;;5055798;28;19920;-62
2023/04/26 01:37:11;;;;;;;;;;;;;;;;;;5054162;28;19913;-61
2023/04/26 01:39:37;;;;;;;;;;;;;;;;;;5055539;28;19917;-61
2023/04/26 01:42:03;;;;;;;;;;;;;;;;;;5038804;28;19913;-61
2023/04/26 01:44:29;;;;;;;;;;;;;;;;;;5036348;28;20339;-62
2023/04/26 01:46:55;;;;;;;;;;;;;;;;;;5039626;28;20035;-62
2023/04/26 01:49:21;;;;;;;;;;;;;;;;;;5055426;28;19936;-61
2023/04/26 01:51:47;;;;;;;;;;;;;;;;;;5054326;28;19912;-62
2023/04/26 01:54:13;;;;;;;;;;;;;;;;;;5052688;28;19926;-62
2023/04/26 01:56:39;;;;;;;;;;;;;;;;;;5055581;28;20361;-61
2023/04/26 01:59:05;;;;;;;;;;;;;;;;;;5054359;28;20166;-62
2023/04/26 02:01:31;;;;;;;;;;;;;;;;;;5042922;28;20300;-62
2023/04/26 02:03:57;;;;;;;;;;;;;;;;;;5052059;28;19963;-61
2023/04/26 02:06:23;;;;;;;;;;;;;;;;;;5052502;28;19964;-61
2023/04/26 02:08:49;;;;;;;;;;;;;;;;;;5055398;28;20015;-61
2023/04/26 02:11:14;;;;;;;;;;;;;;;;;;5036365;28;19913;-61
2023/04/26 02:13:41;;;;;;;;;;;;;;;;;;5055083;28;19950;-63
2023/04/26 02:16:07;;;;;;;;;;;;;;;;;;5053293;28;20365;-61
2023/04/26 02:18:33;;;;;;;;;;;;;;;;;;5053029;28;19922;-61
2023/04/26 02:20:59;;;;;;;;;;;;;;;;;;5053901;28;19917;-61
2023/04/26 02:23:25;;;;;;;;;;;;;;;;;;5053370;28;19963;-61
2023/04/26 02:25:51;;;;;;;;;;;;;;;;;;5053661;28;19947;-61
2023/04/26 02:28:16;;;;;;;;;;;;;;;;;;5054309;28;19920;-61
2023/04/26 02:30:43;;;;;;;;;;;;;;;;;;5055453;28;19986;-61
2023/04/26 02:33:09;;;;;;;;;;;;;;;;;;5052766;28;19969;-61
2023/04/26 02:35:36;;;;;;;;;;;;;;;;;;5053919;28;19960;-61
2023/04/26 02:38:02;;;;;;;;;;;;;;;;;;5051888;28;19912;-63
2023/04/26 02:40:29;;;;;;;;;;;;;;;;;;5053677;28;19966;-61
2023/04/26 02:42:54;;;;;;;;;;;;;;;;;;5053287;28;19917;-61
2023/04/26 02:45:20;;;;;;;;;;;;;;;;;;5052186;28;20411;-62
2023/04/26 02:47:46;;;;;;;;;;;;;;;;;;5050576;28;19916;-61
2023/04/26 02:50:12;;;;;;;;;;;;;;;;;;5052758;28;20288;-61
2023/04/26 02:52:38;;;;;;;;;;;;;;;;;;5040030;28;19961;-62
2023/04/26 02:55:04;;;;;;;;;;;;;;;;;;5056392;28;19913;-61
2023/04/26 02:57:30;;;;;;;;;;;;;;;;;;5052828;28;20415;-61
2023/04/26 02:59:56;;;;;;;;;;;;;;;;;;5052091;28;20440;-61
2023/04/26 03:02:22;;;;;;;;;;;;;;;;;;5054383;28;20013;-61
2023/04/26 03:04:48;;;;;;;;;;;;;;;;;;5053922;28;19913;-61
2023/04/26 03:07:14;;;;;;;;;;;;;;;;;;5041822;28;19913;-63
2023/04/26 03:09:39;;;;;;;;;;;;;;;;;;5048013;28;19959;-61
2023/04/26 03:12:05;;;;;;;;;;;;;;;;;;5052183;28;19916;-60
2023/04/26 03:14:32;;;;;;;;;;;;;;;;;;5051559;28;19958;-61
2023/04/26 03:16:58;;;;;;;;;;;;;;;;;;5047139;28;19909;-61
2023/04/26 03:19:24;;;;;;;;;;;;;;;;;;5052049;28;19967;-61
2023/04/26 03:21:50;;;;;;;;;;;;;;;;;;5047670;28;20349;-61
2023/04/26 03:24:16;;;;;;;;;;;;;;;;;;5052839;28;19999;-61
2023/04/26 03:26:42;;;;;;;;;;;;;;;;;;5050899;28;19917;-63
2023/04/26 03:29:08;;;;;;;;;;;;;;;;;;5052695;28;19960;-61
2023/04/26 03:31:34;;;;;;;;;;;;;;;;;;5051944;28;20026;-61
2023/04/26 03:34:00;;;;;;;;;;;;;;;;;;5051209;28;20319;-61
2023/04/26 03:36:27;;;;;;;;;;;;;;;;;;5051449;28;19913;-61
2023/04/26 03:38:53;;;;;;;;;;;;;;;;;;5056064;28;19916;-61
2023/04/26 03:41:19;;;;;;;;;;;;;;;;;;5051771;28;19952;-61
2023/04/26 03:43:45;;;;;;;;;;;;;;;;;;5051772;28;20658;-61
2023/04/26 03:46:11;;;;;;;;;;;;;;;;;;5045735;28;19920;-61
2023/04/26 03:48:37;;;;;;;;;;;;;;;;;;5054802;28;19917;-61
2023/04/26 03:51:03;;;;;;;;;;;;;;;;;;5052991;28;20430;-61
2023/04/26 03:53:28;;;;;;;;;;;;;;;;;;5046076;28;19921;-63
2023/04/26 03:55:55;;;;;;;;;;;;;;;;;;5042860;28;20353;-61
2023/04/26 03:58:21;;;;;;;;;;;;;;;;;;5048163;28;19924;-63
2023/04/26 04:00:47;;;;;;;;;;;;;;;;;;5032637;28;20373;-61
2023/04/26 04:03:13;;;;;;;;;;;;;;;;;;5037930;28;20013;-61
2023/04/26 04:05:38;;;;;;;;;;;;;;;;;;5036104;28;19947;-61
2023/04/26 04:08:04;;;;;;;;;;;;;;;;;;5047036;28;19952;-63
2023/04/26 04:10:30;;;;;;;;;;;;;;;;;;5047434;28;20396;-61
2023/04/26 04:12:56;;;;;;;;;;;;;;;;;;5057678;28;20329;-61
2023/04/26 04:15:22;;;;;;;;;;;;;;;;;;5047529;28;19913;-61
2023/04/26 04:17:48;;;;;;;;;;;;;;;;;;5050489;28;20153;-61
2023/04/26 04:20:14;;;;;;;;;;;;;;;;;;5051792;28;19909;-61
2023/04/26 04:22:40;;;;;;;;;;;;;;;;;;5049673;28;20710;-61
2023/04/26 04:25:06;;;;;;;;;;;;;;;;;;5049702;28;19996;-61
2023/04/26 04:27:32;;;;;;;;;;;;;;;;;;5049850;28;19917;-61
2023/04/26 04:29:58;;;;;;;;;;;;;;;;;;5051821;28;20024;-61
2023/04/26 04:32:24;;;;;;;;;;;;;;;;;;5050919;28;19958;-64
2023/04/26 04:34:50;;;;;;;;;;;;;;;;;;5045791;28;20039;-61
2023/04/26 04:37:17;;;;;;;;;;;;;;;;;;5049789;28;20296;-63
2023/04/26 04:39:42;;;;;;;;;;;;;;;;;;5039926;28;19919;-61
2023/04/26 04:42:09;;;;;;;;;;;;;;;;;;5046934;28;19916;-63
2023/04/26 04:44:36;;;;;;;;;;;;;;;;;;5047338;28;19971;-61
2023/04/26 04:47:02;;;;;;;;;;;;;;;;;;5048120;28;20427;-61
2023/04/26 04:49:30;;;;;;;;;;;;;;;;;;5049799;28;20524;-63
2023/04/26 04:51:56;;;;;;;;;;;;;;;;;;5047435;28;21549;-63
2023/04/26 04:54:22;;;;;;;;;;;;;;;;;;5049024;28;19963;-61
2023/04/26 04:56:48;;;;;;;;;;;;;;;;;;5048129;28;19912;-63
2023/04/26 04:59:14;;;;;;;;;;;;;;;;;;5045707;28;19919;-61
2023/04/26 05:01:40;;;;;;;;;;;;;;;;;;5054943;28;19912;-61
2023/04/26 05:04:06;;;;;;;;;;;;;;;;;;5048371;28;19924;-63
2023/04/26 05:06:32;;;;;;;;;;;;;;;;;;5036879;28;20025;-62
2023/04/26 05:08:58;;;;;;;;;;;;;;;;;;5052765;28;20384;-63
2023/04/26 05:11:24;;;;;;;;;;;;;;;;;;5034921;28;20057;-63
2023/04/26 05:13:50;;;;;;;;;;;;;;;;;;5052300;28;20069;-63
2023/04/26 05:16:16;;;;;;;;;;;;;;;;;;5050713;28;19964;-63
2023/04/26 05:18:42;;;;;;;;;;;;;;;;;;5045000;28;20051;-63
2023/04/26 05:21:08;;;;;;;;;;;;;;;;;;5050991;28;19970;-63
2023/04/26 05:23:34;;;;;;;;;;;;;;;;;;5050108;28;19970;-63
2023/04/26 05:25:59;;;;;;;;;;;;;;;;;;5043671;28;20361;-63
2023/04/26 05:28:25;;;;;;;;;;;;;;;;;;5053694;28;19920;-63
2023/04/26 05:30:51;;;;;;;;;;;;;;;;;;5051494;28;19956;-63
2023/04/26 05:33:17;;;;;;;;;;;;;;;;;;5043341;28;19923;-63
2023/04/26 05:35:43;;;;;;;;;;;;;;;;;;5044064;28;19944;-63
2023/04/26 05:38:09;;;;;;;;;;;;;;;;;;5050617;28;19948;-62
2023/04/26 05:40:35;;;;;;;;;;;;;;;;;;5051658;28;19943;-62
2023/04/26 05:43:01;;;;;;;;;;;;;;;;;;5049220;28;19923;-63
2023/04/26 05:45:27;;;;;;;;;;;;;;;;;;5049266;28;20265;-63
2023/04/26 05:47:53;;;;;;;;;;;;;;;;;;5051686;28;20005;-63
2023/04/26 05:50:20;;;;;;;;;;;;;;;;;;5048303;28;19947;-62
2023/04/26 05:52:46;;;;;;;;;;;;;;;;;;5049631;28;19912;-63
2023/04/26 05:55:12;;;;;;;;;;;;;;;;;;5048665;28;20371;-63
2023/04/26 05:57:38;;;;;;;;;;;;;;;;;;5053406;28;19920;-63
2023/04/26 06:00:04;;;;;;;;;;;;;;;;;;5043621;28;20346;-63
2023/04/26 06:02:30;;;;;;;;;;;;;;;;;;5046046;28;19917;-64
2023/04/26 06:04:56;;;;;;;;;;;;;;;;;;5049033;28;20650;-63
2023/04/26 06:07:22;;;;;;;;;;;;;;;;;;5048416;28;19940;-63
2023/04/26 06:09:48;;;;;;;;;;;;;;;;;;5053753;28;19955;-63
2023/04/26 06:12:14;;;;;;;;;;;;;;;;;;5054923;28;20361;-63
2023/04/26 06:14:40;;;;;;;;;;;;;;;;;;5055561;28;19923;-63
2023/04/26 06:17:06;;;;;;;;;;;;;;;;;;5037514;28;19913;-63
2023/04/26 06:19:32;;;;;;;;;;;;;;;;;;5045900;28;20320;-62
2023/04/26 06:21:58;;;;;;;;;;;;;;;;;;5052053;28;19947;-63
2023/04/26 06:24:24;;;;;;;;;;;;;;;;;;5055115;28;19917;-62
2023/04/26 06:26:50;;;;;;;;;;;;;;;;;;5049261;28;20011;-63
2023/04/26 06:29:16;;;;;;;;;;;;;;;;;;5054244;28;20024;-63
2023/04/26 06:31:42;;;;;;;;;;;;;;;;;;5051163;28;19970;-63
2023/04/26 06:34:08;;;;;;;;;;;;;;;;;;5055002;28;20023;-62
2023/04/26 06:36:34;;;;;;;;;;;;;;;;;;5054328;28;19908;-63
2023/04/26 06:39:00;;;;;;;;;;;;;;;;;;5052087;28;20007;-63
2023/04/26 06:41:26;;;;;;;;;;;;;;;;;;5053692;28;19944;-61
2023/04/26 06:43:52;;;;;;;;;;;;;;;;;;5052968;28;20338;-63
2023/04/26 06:46:18;;;;;;;;;;;;;;;;;;5053271;28;19919;-63
2023/04/26 06:48:44;;;;;;;;;;;;;;;;;;5048765;28;19945;-63
2023/04/26 06:51:10;;;;;;;;;;;;;;;;;;5044025;28;19959;-63
2023/04/26 06:53:36;;;;;;;;;;;;;;;;;;5033922;28;20382;-63
2023/04/26 06:56:01;;;;;;;;;;;;;;;;;;5050651;28;19956;-63
2023/04/26 06:58:27;;;;;;;;;;;;;;;;;;5030435;28;19923;-63
2023/04/26 07:00:53;;;;;;;;;;;;;;;;;;5043159;28;20360;-63
2023/04/26 07:03:19;;;;;;;;;;;;;;;;;;5050517;28;19986;-63
2023/04/26 07:05:45;;;;;;;;;;;;;;;;;;5048312;28;19913;-63
2023/04/26 07:08:11;;;;;;;;;;;;;;;;;;5048062;28;20376;-63
2023/04/26 07:10:37;;;;;;;;;;;;;;;;;;5047370;28;19967;-63
2023/04/26 07:13:03;;;;;;;;;;;;;;;;;;5048398;28;20395;-63
2023/04/26 07:15:30;;;;;;;;;;;;;;;;;;5047094;28;19920;-63
2023/04/26 07:17:56;;;;;;;;;;;;;;;;;;5045304;28;19974;-63
2023/04/26 07:20:23;;;;;;;;;;;;;;;;;;5047844;28;20399;-63
2023/04/26 07:22:49;;;;;;;;;;;;;;;;;;5051087;28;20212;-61
2023/04/26 07:25:15;;;;;;;;;;;;;;;;;;5045016;28;19916;-63
2023/04/26 07:27:41;;;;;;;;;;;;;;;;;;5047007;28;19948;-62
2023/04/26 07:30:07;;;;;;;;;;;;;;;;;;5041151;28;19921;-63
2023/04/26 07:32:33;;;;;;;;;;;;;;;;;;5045030;28;20082;-63
2023/04/26 07:34:59;;;;;;;;;;;;;;;;;;5043808;28;20371;-64
2023/04/26 07:37:25;;;;;;;;;;;;;;;;;;5039789;28;19919;-63
2023/04/26 07:39:51;;;;;;;;;;;;;;;;;;5042818;28;19917;-63
2023/04/26 07:42:17;;;;;;;;;;;;;;;;;;5048583;28;20002;-62
2023/04/26 07:44:43;;;;;;;;;;;;;;;;;;5046563;28;19920;-63
2023/04/26 07:47:09;;;;;;;;;;;;;;;;;;5048073;28;20401;-61
2023/04/26 07:49:35;;;;;;;;;;;;;;;;;;5048914;28;20411;-63
2023/04/26 07:52:01;;;;;;;;;;;;;;;;;;5049594;28;19956;-64
2023/04/26 07:54:27;;;;;;;;;;;;;;;;;;5050157;28;19952;-63
2023/04/26 07:56:54;;;;;;;;;;;;;;;;;;5046633;28;20048;-61
2023/04/26 07:59:20;;;;;;;;;;;;;;;;;;5051779;28;20514;-63
2023/04/26 08:01:46;;;;;;;;;;;;;;;;;;5040626;28;19958;-63
2023/04/26 08:04:11;;;;;;;;;;;;;;;;;;5043120;28;20019;-63
2023/04/26 08:06:38;;;;;;;;;;;;;;;;;;5046022;28;19920;-62
2023/04/26 08:09:04;;;;;;;;;;;;;;;;;;5050752;28;20435;-62
2023/04/26 08:11:30;;;;;;;;;;;;;;;;;;5049355;28;20280;-62
2023/04/26 08:13:56;;;;;;;;;;;;;;;;;;5046967;28;19968;-63
2023/04/26 08:16:22;;;;;;;;;;;;;;;;;;5046365;28;19951;-63
2023/04/26 08:18:47;;;;;;;;;;;;;;;;;;5047806;28;19967;-62
2023/04/26 08:21:13;;;;;;;;;;;;;;;;;;5047116;28;20389;-62
2023/04/26 08:23:39;;;;;;;;;;;;;;;;;;5046057;28;19927;-62
2023/04/26 08:26:06;;;;;;;;;;;;;;;;;;5048776;28;20446;-63
2023/04/26 08:28:32;;;;;;;;;;;;;;;;;;5047690;28;19929;-62
2023/04/26 08:30:58;;;;;;;;;;;;;;;;;;5047312;28;20308;-63
2023/04/26 08:33:24;;;;;;;;;;;;;;;;;;5048116;28;19917;-63
2023/04/26 08:35:50;;;;;;;;;;;;;;;;;;5049182;28;19917;-62
2023/04/26 08:38:16;;;;;;;;;;;;;;;;;;5044872;28;19940;-63
2023/04/26 08:40:42;;;;;;;;;;;;;;;;;;5043566;28;20025;-62
2023/04/26 08:43:08;;;;;;;;;;;;;;;;;;5048652;28;19979;-62
2023/04/26 08:45:34;;;;;;;;;;;;;;;;;;5049725;28;20369;-62
2023/04/26 08:48:00;;;;;;;;;;;;;;;;;;5048828;28;19920;-62
2023/04/26 08:50:26;;;;;;;;;;;;;;;;;;5039829;28;20972;-62
2023/04/26 08:52:52;;;;;;;;;;;;;;;;;;5045523;28;19948;-62
2023/04/26 08:55:18;;;;;;;;;;;;;;;;;;5046499;28;20000;-62
2023/04/26 08:57:44;;;;;;;;;;;;;;;;;;5043368;28;19913;-62
2023/04/26 09:00:14;;;;;;;;;;;;;;;;;;5049630;28;19959;-62
2023/04/26 09:02:41;;;;;;;;;;;;;;;;;;5046582;28;19929;-62
2023/04/26 09:05:08;;;;;;;;;;;;;;;;;;5044186;28;19917;-62
2023/04/26 09:07:34;;;;;;;;;;;;;;;;;;5043945;28;19917;-62
2023/04/26 09:09:59;;;;;;;;;;;;;;;;;;5049236;28;20013;-62
2023/04/26 09:12:26;;;;;;;;;;;;;;;;;;5046634;28;19968;-62
2023/04/26 09:14:52;;;;;;;;;;;;;;;;;;5042736;28;19917;-62
2023/04/26 09:17:17;;;;;;;;;;;;;;;;;;5030526;28;19916;-63
2023/04/26 09:19:43;;;;;;;;;;;;;;;;;;5045104;28;19921;-62
2023/04/26 09:22:10;;;;;;;;;;;;;;;;;;5043935;28;19981;-63
2023/04/26 09:24:35;;;;;;;;;;;;;;;;;;5043833;28;19917;-63
2023/04/26 09:27:04;;;;;;;;;;;;;;;;;;5053592;28;20001;-61
2023/04/26 09:29:30;;;;;;;;;;;;;;;;;;5045710;28;19917;-62
2023/04/26 09:31:57;;;;;;;;;;;;;;;;;;5048063;28;20304;-62
2023/04/26 09:34:23;;;;;;;;;;;;;;;;;;5046864;28;19920;-63
2023/04/26 09:36:49;;;;;;;;;;;;;;;;;;5047044;28;20340;-62
2023/04/26 09:39:15;;;;;;;;;;;;;;;;;;5048554;28;19939;-63
2023/04/26 09:41:41;;;;;;;;;;;;;;;;;;5048717;28;19979;-63
2023/04/26 09:44:07;;;;;;;;;;;;;;;;;;5045967;28;19963;-62
2023/04/26 09:46:32;;;;;;;;;;;;;;;;;;5049040;28;20439;-63
2023/04/26 09:48:58;;;;;;;;;;;;;;;;;;5049895;28;19921;-63
2023/04/26 09:51:25;;;;;;;;;;;;;;;;;;5049551;28;20422;-63
2023/04/26 09:53:51;;;;;;;;;;;;;;;;;;5052121;28;20269;-63
2023/04/26 09:56:17;;;;;;;;;;;;;;;;;;5045778;28;19919;-63
2023/04/26 09:58:43;;;;;;;;;;;;;;;;;;5049169;28;19917;-63
2023/04/26 10:01:10;;;;;;;;;;;;;;;;;;5050175;28;19923;-63
2023/04/26 10:03:36;;;;;;;;;;;;;;;;;;5049834;28;19966;-63
2023/04/26 10:06:02;;;;;;;;;;;;;;;;;;5052182;28;20323;-63
2023/04/26 10:08:28;;;;;;;;;;;;;;;;;;5054410;28;19909;-63
2023/04/26 10:10:54;;;;;;;;;;;;;;;;;;5053805;28;20407;-63
2023/04/26 10:13:20;;;;;;;;;;;;;;;;;;5048658;28;20019;-63
2023/04/26 10:15:46;;;;;;;;;;;;;;;;;;5054327;28;19913;-63
2023/04/26 10:18:11;;;;;;;;;;;;;;;;;;5053372;28;20257;-64
2023/04/26 10:20:37;;;;;;;;;;;;;;;;;;5050957;28;19921;-63
2023/04/26 10:23:03;;;;;;;;;;;;;;;;;;5053728;28;20013;-63
2023/04/26 10:25:30;;;;;;;;;;;;;;;;;;5052712;28;19916;-63
2023/04/26 10:27:55;;;;;;;;;;;;;;;;;;5048308;28;19924;-63
2023/04/26 10:30:22;;;;;;;;;;;;;;;;;;5047291;28;19953;-63
2023/04/26 10:32:48;;;;;;;;;;;;;;;;;;5051548;28;19919;-63
2023/04/26 10:35:16;;;;;;;;;;;;;;;;;;5051596;28;19913;-63
2023/04/26 10:37:42;;;;;;;;;;;;;;;;;;5049644;28;19915;-63
2023/04/26 10:40:07;;;;;;;;;;;;;;;;;;5050218;28;19947;-63
2023/04/26 10:42:33;;;;;;;;;;;;;;;;;;5052541;28;20002;-63
2023/04/26 10:44:59;;;;;;;;;;;;;;;;;;5050898;28;20137;-63
2023/04/26 10:47:25;;;;;;;;;;;;;;;;;;5047903;28;19946;-63
2023/04/26 10:49:52;;;;;;;;;;;;;;;;;;5050977;28;20375;-63
2023/04/26 10:52:19;;;;;;;;;;;;;;;;;;5053672;28;20327;-63
2023/04/26 10:54:45;;;;;;;;;;;;;;;;;;5041942;28;19924;-63
2023/04/26 10:57:11;;;;;;;;;;;;;;;;;;5052158;28;20329;-63
2023/04/26 10:59:37;;;;;;;;;;;;;;;;;;5051188;28;19920;-63
2023/04/26 11:02:03;;;;;;;;;;;;;;;;;;5048124;28;20346;-63
2023/04/26 11:04:28;;;;;;;;;;;;;;;;;;5050467;28;19916;-63
2023/04/26 11:06:56;;;;;;;;;;;;;;;;;;5050470;28;19939;-63
2023/04/26 11:09:22;;;;;;;;;;;;;;;;;;5051876;28;19913;-63
2023/04/26 11:11:48;;;;;;;;;;;;;;;;;;5047559;28;20015;-60
2023/04/26 11:14:14;;;;;;;;;;;;;;;;;;5040113;28;19920;-59
2023/04/26 11:16:40;;;;;;;;;;;;;;;;;;5040478;28;19945;-60
2023/04/26 11:19:06;;;;;;;;;;;;;;;;;;5046322;28;19956;-59
2023/04/26 11:21:32;;;;;;;;;;;;;;;;;;5041327;28;19919;-59
2023/04/26 11:23:58;;;;;;;;;;;;;;;;;;5050297;28;19920;-59
2023/04/26 11:26:24;;;;;;;;;;;;;;;;;;5050833;28;19912;-59
2023/04/26 11:28:50;;;;;;;;;;;;;;;;;;5039413;28;19921;-59
2023/04/26 11:31:16;;;;;;;;;;;;;;;;;;5034702;28;19916;-60
2023/04/26 11:33:41;;;;;;;;;;;;;;;;;;5046314;28;19919;-59
2023/04/26 11:36:07;;;;;;;;;;;;;;;;;;5044821;28;20112;-59
2023/04/26 11:38:33;;;;;;;;;;;;;;;;;;5049269;28;19990;-60
2023/04/26 11:40:59;;;;;;;;;;;;;;;;;;5044041;28;20273;-58
2023/04/26 11:43:25;;;;;;;;;;;;;;;;;;5044464;28;19928;-59
2023/04/26 11:45:51;;;;;;;;;;;;;;;;;;5036162;28;19968;-59
2023/04/26 11:48:17;;;;;;;;;;;;;;;;;;5046640;28;19917;-59
2023/04/26 11:50:43;;;;;;;;;;;;;;;;;;5043361;28;19914;-59
2023/04/26 11:53:09;;;;;;;;;;;;;;;;;;5034900;28;19960;-59
2023/04/26 11:55:35;;;;;;;;;;;;;;;;;;5036174;28;20359;-58
2023/04/26 11:58:02;;;;;;;;;;;;;;;;;;5041855;28;19927;-57
2023/04/26 12:00:28;;;;;;;;;;;;;;;;;;5045609;28;19952;-58
2023/04/26 12:02:56;;;;;;;;;;;;;;;;;;5047902;28;19981;-57
2023/04/26 12:05:22;;;;;;;;;;;;;;;;;;5049135;28;20000;-57
2023/04/26 12:07:48;;;;;;;;;;;;;;;;;;5049525;28;19944;-57
2023/04/26 12:10:14;;;;;;;;;;;;;;;;;;5044488;28;20385;-57
2023/04/26 12:12:40;;;;;;;;;;;;;;;;;;5051398;28;19921;-58
2023/04/26 12:15:06;;;;;;;;;;;;;;;;;;5048400;28;20817;-57
2023/04/26 12:17:32;;;;;;;;;;;;;;;;;;5044298;28;20364;-57
2023/04/26 12:19:58;;;;;;;;;;;;;;;;;;5045707;28;19948;-57
2023/04/26 12:22:24;;;;;;;;;;;;;;;;;;5049747;28;19919;-58
2023/04/26 12:24:50;;;;;;;;;;;;;;;;;;5049248;28;19921;-57
2023/04/26 12:27:16;;;;;;;;;;;;;;;;;;5050891;28;19978;-58
2023/04/26 12:29:42;;;;;;;;;;;;;;;;;;5050619;28;19919;-57
2023/04/26 12:32:07;;;;;;;;;;;;;;;;;;5044628;28;19917;-58
2023/04/26 12:34:33;;;;;;;;;;;;;;;;;;5053546;28;20572;-59
2023/04/26 12:36:59;;;;;;;;;;;;;;;;;;5047804;28;20015;-57
2023/04/26 12:39:25;;;;;;;;;;;;;;;;;;5049139;28;20418;-57
2023/04/26 12:41:51;;;;;;;;;;;;;;;;;;5043249;28;19951;-57
2023/04/26 12:44:17;;;;;;;;;;;;;;;;;;5046046;28;20019;-58
2023/04/26 12:46:43;;;;;;;;;;;;;;;;;;5050809;28;19913;-58
2023/04/26 12:49:09;;;;;;;;;;;;;;;;;;5049596;28;20023;-59
2023/04/26 12:51:35;;;;;;;;;;;;;;;;;;5048849;28;19965;-58
2023/04/26 12:54:01;;;;;;;;;;;;;;;;;;5047633;28;19974;-58
2023/04/26 12:56:27;;;;;;;;;;;;;;;;;;5048917;28;19923;-58
2023/04/26 12:58:53;;;;;;;;;;;;;;;;;;5049541;28;19909;-58
2023/04/26 13:01:19;;;;;;;;;;;;;;;;;;5045704;28;19917;-57
2023/04/26 13:03:45;;;;;;;;;;;;;;;;;;5049295;28;20416;-58
2023/04/26 13:06:11;;;;;;;;;;;;;;;;;;5049490;28;19919;-58
2023/04/26 13:08:37;;;;;;;;;;;;;;;;;;5060163;28;19919;-58
2023/04/26 13:11:03;;;;;;;;;;;;;;;;;;5039984;28;20000;-58
2023/04/26 13:13:29;;;;;;;;;;;;;;;;;;5049856;28;20454;-57
2023/04/26 13:15:55;;;;;;;;;;;;;;;;;;5050332;28;19924;-57
2023/04/26 13:18:21;;;;;;;;;;;;;;;;;;5051290;28;19916;-58
2023/04/26 13:20:47;;;;;;;;;;;;;;;;;;5047347;28;19970;-58
2023/04/26 13:23:13;;;;;;;;;;;;;;;;;;5054194;28;19925;-58
2023/04/26 13:25:39;;;;;;;;;;;;;;;;;;5051023;28;19917;-57
2023/04/26 13:28:05;;;;;;;;;;;;;;;;;;5044414;28;19971;-57
2023/04/26 13:30:31;;;;;;;;;;;;;;;;;;5050405;28;19944;-57
2023/04/26 13:32:57;;;;;;;;;;;;;;;;;;5046110;28;19970;-57
2023/04/26 13:35:23;;;;;;;;;;;;;;;;;;5049726;28;19971;-57
2023/04/26 13:37:49;;;;;;;;;;;;;;;;;;5046939;28;20023;-57
2023/04/26 13:40:15;;;;;;;;;;;;;;;;;;5047454;28;20468;-57
2023/04/26 13:42:41;;;;;;;;;;;;;;;;;;5054968;28;19913;-57
2023/04/26 13:45:10;;;;;;;;;;;;;;;;;;5050383;28;19955;-57
2023/04/26 13:47:36;;;;;;;;;;;;;;;;;;5048293;28;20392;-57
2023/04/26 13:50:03;;;;;;;;;;;;;;;;;;5045275;28;19913;-57
2023/04/26 13:52:28;;;;;;;;;;;;;;;;;;5050340;28;20361;-57
2023/04/26 13:54:54;;;;;;;;;;;;;;;;;;5048351;28;19959;-58
2023/04/26 13:57:20;;;;;;;;;;;;;;;;;;5052342;28;19913;-57
2023/04/26 13:59:46;;;;;;;;;;;;;;;;;;5051926;28;19998;-57
2023/04/26 14:02:12;;;;;;;;;;;;;;;;;;5049380;28;19992;-57
2023/04/26 14:04:38;;;;;;;;;;;;;;;;;;5048506;28;19921;-57
2023/04/26 14:07:04;;;;;;;;;;;;;;;;;;5043321;28;19970;-58
2023/04/26 14:09:30;;;;;;;;;;;;;;;;;;5041021;28;19924;-58
2023/04/26 14:11:56;;;;;;;;;;;;;;;;;;5049842;28;19964;-58
2023/04/26 14:14:22;;;;;;;;;;;;;;;;;;5048790;28;19979;-58
2023/04/26 14:16:48;;;;;;;;;;;;;;;;;;5051088;28;20603;-58
2023/04/26 14:19:14;;;;;;;;;;;;;;;;;;5043876;28;19923;-58
2023/04/26 14:21:40;;;;;;;;;;;;;;;;;;5047215;28;19917;-57
2023/04/26 14:24:06;;;;;;;;;;;;;;;;;;5049256;28;19916;-58
2023/04/26 14:26:32;;;;;;;;;;;;;;;;;;5046358;28;20560;-58
2023/04/26 14:28:58;;;;;;;;;;;;;;;;;;5043103;28;19917;-58
2023/04/26 14:31:25;;;;;;;;;;;;;;;;;;5044058;28;19924;-59
2023/04/26 14:33:50;;;;;;;;;;;;;;;;;;5055268;28;19913;-58
2023/04/26 14:36:16;;;;;;;;;;;;;;;;;;5049213;28;20528;-58
2023/04/26 14:38:42;;;;;;;;;;;;;;;;;;5052636;28;19990;-58
2023/04/26 14:41:08;;;;;;;;;;;;;;;;;;5049269;28;19913;-57
2023/04/26 14:43:34;;;;;;;;;;;;;;;;;;5048144;28;19967;-58
2023/04/26 14:46:02;;;;;;;;;;;;;;;;;;5050012;28;19938;-57
2023/04/26 14:48:28;;;;;;;;;;;;;;;;;;5050432;28;19913;-57
2023/04/26 14:50:53;;;;;;;;;;;;;;;;;;5043792;28;20383;-58
2023/04/26 14:53:19;;;;;;;;;;;;;;;;;;5043790;28;19925;-57
2023/04/26 14:55:45;;;;;;;;;;;;;;;;;;5041321;28;19983;-57
2023/04/26 14:58:11;;;;;;;;;;;;;;;;;;5048862;28;19999;-57
2023/04/26 15:00:38;;;;;;;;;;;;;;;;;;5047224;28;19918;-57
2023/04/26 15:03:04;;;;;;;;;;;;;;;;;;5046114;28;20280;-57
2023/04/26 15:05:30;;;;;;;;;;;;;;;;;;5047634;28;19917;-57
2023/04/26 15:07:56;;;;;;;;;;;;;;;;;;5043506;28;19920;-58
2023/04/26 15:10:22;;;;;;;;;;;;;;;;;;5051031;28;19909;-57
2023/04/26 15:12:47;;;;;;;;;;;;;;;;;;4992353;28;1672888;-57
2023/04/26 15:15:14;;;;;;;;;;;;;;;;;;5056227;28;20372;-57
2023/04/26 15:17:40;;;;;;;;;;;;;;;;;;5051122;28;19917;-57
2023/04/26 15:20:06;;;;;;;;;;;;;;;;;;5052851;28;19920;-57
2023/04/26 15:22:32;;;;;;;;;;;;;;;;;;5039189;28;19952;-57
2023/04/26 15:24:57;;;;;;;;;;;;;;;;;;5047109;28;19920;-57
2023/04/26 15:27:24;;;;;;;;;;;;;;;;;;5052829;28;19919;-56
2023/04/26 15:29:50;;;;;;;;;;;;;;;;;;5050821;28;20385;-56
2023/04/26 15:32:15;;;;;;;;;;;;;;;;;;5052875;28;19915;-57
2023/04/26 15:34:43;;;;;;;;;;;;;;;;;;5052855;28;19999;-57
2023/04/26 15:37:09;;;;;;;;;;;;;;;;;;5050188;28;19920;-57
2023/04/26 15:39:36;;;;;;;;;;;;;;;;;;5052562;28;19963;-57
2023/04/26 15:42:03;;;;;;;;;;;;;;;;;;5050981;28;19916;-57
2023/04/26 15:44:29;;;;;;;;;;;;;;;;;;5052698;28;19912;-58
2023/04/26 15:46:55;;;;;;;;;;;;;;;;;;5049321;28;20503;-57
2023/04/26 15:49:21;;;;;;;;;;;;;;;;;;5050854;28;19995;-56
2023/04/26 15:51:47;;;;;;;;;;;;;;;;;;5049116;28;19925;-56
2023/04/26 15:54:12;;;;;;;;;;;;;;;;;;5052662;28;20414;-56
2023/04/26 15:56:38;;;;;;;;;;;;;;;;;;5052591;28;19909;-57
2023/04/26 15:59:04;;;;;;;;;;;;;;;;;;5052397;28;19967;-57
2023/04/26 16:01:30;;;;;;;;;;;;;;;;;;5044345;28;20000;-57
2023/04/26 16:03:56;;;;;;;;;;;;;;;;;;5045207;28;19917;-56
2023/04/26 16:06:22;;;;;;;;;;;;;;;;;;5051654;28;20384;-58
2023/04/26 16:08:48;;;;;;;;;;;;;;;;;;5042486;28;19924;-56
2023/04/26 16:11:14;;;;;;;;;;;;;;;;;;5045654;28;20266;-56
2023/04/26 16:13:40;;;;;;;;;;;;;;;;;;5048349;28;19933;-57
2023/04/26 16:16:07;;;;;;;;;;;;;;;;;;5048213;28;20110;-57
2023/04/26 16:18:33;;;;;;;;;;;;;;;;;;5048448;28;19917;-56
2023/04/26 16:20:59;;;;;;;;;;;;;;;;;;5048042;28;19927;-57
2023/04/26 16:23:25;;;;;;;;;;;;;;;;;;5049835;28;19939;-57
2023/04/26 16:25:51;;;;;;;;;;;;;;;;;;5048155;28;20384;-57
2023/04/26 16:28:17;;;;;;;;;;;;;;;;;;5047573;28;19919;-57
2023/04/26 16:30:43;;;;;;;;;;;;;;;;;;5047968;28;19960;-56
2023/04/26 16:33:09;;;;;;;;;;;;;;;;;;5048906;28;19916;-56
2023/04/26 16:35:35;;;;;;;;;;;;;;;;;;5045130;28;20416;-56
2023/04/26 16:38:01;;;;;;;;;;;;;;;;;;5048221;28;19924;-56